createdAt,value
2018-10-09T00:00:24.148Z,99.90
2018-10-09T00:02:56.571Z,99.90
2018-10-09T00:05:28.998Z,99.90
2018-10-09T00:08:01.419Z,99.90
2018-10-09T00:10:34.021Z,99.90
2018-10-09T00:13:06.467Z,99.90
2018-10-09T00:15:38.933Z,99.90
2018-10-09T00:18:11.338Z,99.90
2018-10-09T00:20:43.723Z,99.90
2018-10-09T00:23:16.144Z,99.90
2018-10-09T00:25:48.540Z,99.90
2018-10-09T00:28:21.024Z,99.90
2018-10-09T00:30:55.061Z,99.90
2018-10-09T00:33:27.486Z,99.90
2018-10-09T00:35:59.852Z,99.90
2018-10-09T00:38:32.866Z,99.90
2018-10-09T00:41:05.524Z,99.90
2018-10-09T00:43:38.444Z,99.90
2018-10-09T00:46:10.879Z,99.90
2018-10-09T00:48:43.693Z,99.90
2018-10-09T00:51:16.179Z,99.90
2018-10-09T00:53:48.620Z,99.90
2018-10-09T00:56:21.072Z,99.90
2018-10-09T00:58:53.454Z,99.90
2018-10-09T01:01:26.009Z,99.90
2018-10-09T01:03:58.721Z,99.90
2018-10-09T01:06:31.158Z,99.90
2018-10-09T01:09:05.959Z,99.90
2018-10-09T01:11:38.411Z,99.90
2018-10-09T01:14:10.913Z,99.90
2018-10-09T01:16:43.284Z,99.90
2018-10-09T01:19:15.715Z,99.90
2018-10-09T01:21:48.150Z,99.90
2018-10-09T01:24:20.870Z,99.90
2018-10-09T01:26:53.303Z,99.90
2018-10-09T01:29:26.375Z,99.90
2018-10-09T01:31:58.899Z,99.90
2018-10-09T01:34:31.268Z,99.90
2018-10-09T01:37:03.678Z,99.90
2018-10-09T01:39:36.333Z,99.90
2018-10-09T01:42:08.865Z,99.90
2018-10-09T01:44:41.267Z,99.90
2018-10-09T01:47:13.673Z,99.90
2018-10-09T01:49:46.112Z,99.90
2018-10-09T01:52:18.557Z,99.90
2018-10-09T01:54:51.025Z,99.90
2018-10-09T01:57:23.462Z,99.90
2018-10-09T01:59:55.902Z,99.90
2018-10-09T02:02:28.326Z,99.90
2018-10-09T02:05:00.802Z,99.90
2018-10-09T02:07:33.276Z,99.90
2018-10-09T02:10:05.750Z,99.90
2018-10-09T02:12:38.278Z,99.90
2018-10-09T02:15:10.677Z,99.90
2018-10-09T02:17:43.129Z,99.90
2018-10-09T02:20:15.778Z,99.90
2018-10-09T02:22:48.259Z,99.90
2018-10-09T02:25:21.004Z,99.90
2018-10-09T02:27:53.456Z,99.90
2018-10-09T02:30:26.338Z,99.90
2018-10-09T02:32:58.760Z,99.90
2018-10-09T02:35:31.192Z,99.90
2018-10-09T02:38:03.653Z,99.90
2018-10-09T02:40:36.417Z,99.90
2018-10-09T02:43:08.827Z,99.90
2018-10-09T02:45:41.292Z,99.90
2018-10-09T02:48:13.794Z,99.90
2018-10-09T02:50:46.255Z,99.90
2018-10-09T02:53:18.790Z,99.90
2018-10-09T02:55:51.553Z,99.90
2018-10-09T02:58:23.969Z,99.90
2018-10-09T03:00:56.483Z,99.90
2018-10-09T03:03:28.861Z,99.90
2018-10-09T03:06:01.349Z,99.90
2018-10-09T03:08:33.887Z,99.90
2018-10-09T03:11:06.568Z,99.90
2018-10-09T03:13:39.163Z,99.90
2018-10-09T03:16:11.606Z,99.90
2018-10-09T03:18:44.189Z,99.90
2018-10-09T03:21:16.889Z,99.90
2018-10-09T03:23:49.349Z,99.90
2018-10-09T03:26:21.820Z,99.90
2018-10-09T03:28:54.292Z,99.90
2018-10-09T03:31:26.735Z,99.90
2018-10-09T03:33:59.293Z,99.90
2018-10-09T03:36:31.778Z,99.90
2018-10-09T03:39:05.811Z,99.90
2018-10-09T03:41:38.629Z,99.90
2018-10-09T03:44:11.110Z,99.90
2018-10-09T03:46:43.568Z,99.90
2018-10-09T03:49:15.967Z,99.90
2018-10-09T03:51:48.420Z,99.90
2018-10-09T03:54:20.872Z,99.90
2018-10-09T03:56:53.342Z,99.90
2018-10-09T03:59:25.865Z,99.90
2018-10-09T04:01:58.505Z,99.90
2018-10-09T04:04:30.904Z,99.90
2018-10-09T04:07:03.375Z,99.90
2018-10-09T04:09:35.843Z,99.90
2018-10-09T04:12:08.273Z,99.90
2018-10-09T04:14:40.881Z,99.90
2018-10-09T04:17:13.340Z,99.90
2018-10-09T04:19:45.754Z,99.90
2018-10-09T04:22:19.987Z,99.90
2018-10-09T04:24:52.412Z,99.90
2018-10-09T04:27:24.824Z,99.90
2018-10-09T04:29:57.264Z,99.90
2018-10-09T04:32:29.675Z,99.90
2018-10-09T04:35:02.615Z,99.90
2018-10-09T04:37:35.191Z,99.90
2018-10-09T04:40:08.067Z,99.90
2018-10-09T04:42:40.498Z,99.90
2018-10-09T04:45:12.927Z,99.90
2018-10-09T04:47:45.345Z,99.90
2018-10-09T04:50:17.783Z,99.90
2018-10-09T04:52:50.182Z,99.90
2018-10-09T04:55:22.729Z,99.90
2018-10-09T04:57:55.129Z,99.90
2018-10-09T05:00:27.553Z,99.90
2018-10-09T05:03:00.110Z,99.90
2018-10-09T05:05:32.741Z,99.90
2018-10-09T05:08:05.212Z,99.90
2018-10-09T05:10:37.710Z,99.90
2018-10-09T05:13:10.197Z,99.90
2018-10-09T05:15:42.705Z,99.90
2018-10-09T05:18:15.136Z,99.90
2018-10-09T05:20:47.575Z,99.90
2018-10-09T05:23:20.356Z,99.90
2018-10-09T05:25:52.994Z,99.90
2018-10-09T05:28:25.452Z,99.90
2018-10-09T05:30:58.134Z,99.90
2018-10-09T05:33:30.629Z,99.90
2018-10-09T05:36:03.315Z,99.90
2018-10-09T05:38:36.808Z,99.90
2018-10-09T05:41:09.249Z,99.90
2018-10-09T05:43:41.742Z,99.90
2018-10-09T05:46:14.527Z,99.90
2018-10-09T05:48:47.001Z,99.90
2018-10-09T05:51:19.455Z,99.90
2018-10-09T05:53:52.081Z,99.90
2018-10-09T05:56:24.634Z,99.90
2018-10-09T05:58:57.029Z,99.90
2018-10-09T06:01:29.521Z,99.90
2018-10-09T06:04:02.059Z,99.90
2018-10-09T06:06:34.458Z,99.90
2018-10-09T06:09:07.960Z,99.90
2018-10-09T06:11:40.713Z,99.90
2018-10-09T06:14:13.175Z,99.90
2018-10-09T06:16:45.768Z,99.90
2018-10-09T06:19:18.326Z,99.90
2018-10-09T06:21:50.829Z,99.90
2018-10-09T06:24:23.244Z,99.90
2018-10-09T06:26:55.671Z,99.90
2018-10-09T06:29:28.156Z,99.90
2018-10-09T06:32:00.620Z,99.90
2018-10-09T06:34:33.042Z,99.90
2018-10-09T06:37:05.630Z,99.90
2018-10-09T06:39:38.249Z,99.90
2018-10-09T06:42:10.940Z,99.90
2018-10-09T06:44:43.383Z,99.90
2018-10-09T06:47:15.928Z,99.90
2018-10-09T06:49:48.711Z,99.90
2018-10-09T06:52:21.389Z,99.90
2018-10-09T06:54:53.908Z,99.90
2018-10-09T06:57:26.448Z,99.90
2018-10-09T06:59:58.898Z,99.90
2018-10-09T07:02:31.370Z,99.90
2018-10-09T07:05:04.175Z,99.90
2018-10-09T07:07:36.655Z,99.90
2018-10-09T07:10:09.513Z,99.90
2018-10-09T07:12:41.910Z,99.90
2018-10-09T07:15:14.519Z,99.90
2018-10-09T07:17:47.467Z,99.90
2018-10-09T07:20:19.981Z,99.90
2018-10-09T07:22:52.527Z,99.90
2018-10-09T07:25:24.936Z,99.90
2018-10-09T07:27:57.409Z,99.90
2018-10-09T07:30:29.818Z,99.90
2018-10-09T07:33:02.448Z,99.90
2018-10-09T07:35:35.161Z,99.90
2018-10-09T07:38:07.684Z,99.90
2018-10-09T07:40:40.187Z,99.90
2018-10-09T07:43:12.653Z,99.90
2018-10-09T07:45:45.105Z,99.90
2018-10-09T07:48:17.614Z,99.90
2018-10-09T07:50:50.025Z,99.90
2018-10-09T07:53:22.598Z,99.90
2018-10-09T07:55:55.265Z,99.90
2018-10-09T07:58:27.968Z,99.90
2018-10-09T08:01:00.392Z,99.90
2018-10-09T08:03:32.863Z,99.90
2018-10-09T08:06:05.309Z,99.90
2018-10-09T08:08:37.870Z,99.90
2018-10-09T08:11:10.419Z,99.90
2018-10-09T08:13:42.828Z,99.90
2018-10-09T08:16:15.535Z,99.90
2018-10-09T08:18:48.015Z,99.90
2018-10-09T08:21:20.482Z,99.90
2018-10-09T08:23:52.953Z,99.90
2018-10-09T08:26:25.427Z,99.90
2018-10-09T08:28:58.777Z,99.90
2018-10-09T08:31:31.536Z,99.90
2018-10-09T08:34:04.137Z,99.90
2018-10-09T08:36:36.656Z,99.90
2018-10-09T08:39:09.222Z,99.90
2018-10-09T08:41:41.685Z,99.90
2018-10-09T08:44:14.127Z,99.90
2018-10-09T08:46:46.713Z,99.90
2018-10-09T08:49:19.183Z,99.90
2018-10-09T08:51:51.682Z,99.90
2018-10-09T08:54:24.194Z,99.90
2018-10-09T08:56:56.615Z,99.90
2018-10-09T08:59:29.203Z,99.90
2018-10-09T09:02:01.779Z,99.90
2018-10-09T09:04:34.332Z,99.90
2018-10-09T09:07:06.823Z,99.90
2018-10-09T09:09:39.380Z,99.90
2018-10-09T09:12:12.028Z,99.90
2018-10-09T09:14:44.531Z,99.90
2018-10-09T09:17:16.961Z,99.90
2018-10-09T09:19:50.016Z,99.90
2018-10-09T09:22:23.036Z,99.90
2018-10-09T09:24:55.532Z,99.90
2018-10-09T09:27:28.095Z,99.90
2018-10-09T09:30:00.427Z,99.90
2018-10-09T09:32:32.962Z,99.90
2018-10-09T09:35:05.459Z,99.90
2018-10-09T09:37:37.990Z,99.90
2018-10-09T09:40:10.567Z,99.90
2018-10-09T09:42:43.023Z,99.90
2018-10-09T09:45:15.516Z,99.90
2018-10-09T09:47:47.989Z,99.90
2018-10-09T09:50:20.594Z,99.90
2018-10-09T09:52:53.083Z,99.90
2018-10-09T09:55:25.748Z,99.90
2018-10-09T09:57:58.442Z,99.90
2018-10-09T10:00:36.606Z,99.90
2018-10-09T10:03:09.490Z,99.90
2018-10-09T10:05:41.893Z,99.90
2018-10-09T10:08:14.370Z,99.90
2018-10-09T10:10:46.903Z,99.90
2018-10-09T10:13:19.343Z,99.90
2018-10-09T10:15:51.885Z,99.90
2018-10-09T10:18:24.619Z,99.90
2018-10-09T10:20:57.097Z,99.90
2018-10-09T10:23:29.602Z,99.50
2018-10-09T10:26:02.072Z,99.60
2018-10-09T10:28:34.680Z,98.70
2018-10-09T10:31:07.113Z,98.90
2018-10-09T10:33:50.678Z,98.90
2018-10-09T10:36:23.972Z,99.00
2018-10-09T10:38:56.529Z,98.70
2018-10-09T10:41:30.795Z,98.70
2018-10-09T10:44:03.543Z,98.50
2018-10-09T10:51:47.186Z,96.90
2018-10-09T10:54:19.641Z,97.10
2018-10-09T10:56:52.177Z,97.20
2018-10-09T10:59:24.710Z,97.30
2018-10-09T11:01:57.427Z,97.20
2018-10-09T11:04:31.997Z,96.60
2018-10-09T11:07:04.696Z,97.00
2018-10-09T11:09:37.124Z,96.30
2018-10-09T11:12:09.696Z,96.20
2018-10-09T11:14:42.126Z,97.40
2018-10-09T11:17:15.018Z,99.50
2018-10-09T11:19:47.519Z,95.10
2018-10-09T11:22:20.092Z,95.10
2018-10-09T11:24:52.558Z,95.70
2018-10-09T11:27:25.698Z,95.90
2018-10-09T11:29:58.375Z,95.90
2018-10-09T11:35:03.890Z,95.50
2018-10-09T11:37:36.289Z,95.50
2018-10-09T11:40:08.809Z,95.30
2018-10-09T11:42:41.416Z,95.00
2018-10-09T11:45:13.953Z,94.80
2018-10-09T11:47:46.627Z,94.80
2018-10-09T11:50:19.170Z,95.20
2018-10-09T11:55:24.518Z,96.40
2018-10-09T11:57:57.013Z,94.80
2018-10-09T12:00:30.806Z,96.90
2018-10-09T12:03:04.169Z,97.60
2018-10-09T12:05:37.391Z,97.50
2018-10-09T12:10:42.362Z,94.10
2018-10-09T12:13:14.797Z,94.40
2018-10-09T12:15:47.513Z,94.30
2018-10-09T12:18:19.982Z,94.70
2018-10-09T12:20:52.696Z,94.50
2018-10-09T12:23:25.232Z,94.90
2018-10-09T12:25:57.700Z,95.00
2018-10-09T12:28:30.187Z,95.40
2018-10-09T12:31:02.702Z,94.80
2018-10-09T12:33:35.282Z,94.50
2018-10-09T12:36:07.923Z,94.60
2018-10-09T12:38:40.330Z,94.50
2018-10-09T12:41:12.858Z,94.50
2018-10-09T12:43:45.389Z,94.70
2018-10-09T12:46:17.863Z,94.60
2018-10-09T12:48:50.275Z,95.00
2018-10-09T12:51:22.740Z,95.30
2018-10-09T12:53:55.222Z,95.80
2018-10-09T12:56:27.855Z,95.80
2018-10-09T12:59:00.381Z,94.90
2018-10-09T13:01:32.779Z,94.70
2018-10-09T13:04:05.355Z,94.90
2018-10-09T13:06:37.883Z,95.30
2018-10-09T13:09:11.883Z,95.00
2018-10-09T13:11:44.360Z,95.50
2018-10-09T13:14:16.849Z,95.70
2018-10-09T13:16:49.324Z,95.40
2018-10-09T13:19:21.766Z,95.30
2018-10-09T13:21:54.543Z,95.10
2018-10-09T13:24:26.825Z,95.40
2018-10-09T13:26:59.289Z,95.20
2018-10-09T13:29:31.684Z,95.60
2018-10-09T13:32:04.214Z,95.70
2018-10-09T13:34:36.975Z,99.90
2018-10-09T13:37:09.369Z,99.90
2018-10-09T13:39:41.994Z,99.90
2018-10-09T13:42:14.502Z,99.40
2018-10-09T13:44:47.056Z,99.90
2018-10-09T13:47:19.660Z,95.50
2018-10-09T13:49:52.248Z,95.10
2018-10-09T13:52:24.785Z,94.90
2018-10-09T13:54:57.282Z,94.90
2018-10-09T13:57:29.754Z,95.20
2018-10-09T14:00:02.279Z,96.30
2018-10-09T14:02:34.803Z,95.50
2018-10-09T14:05:07.443Z,96.30
2018-10-09T14:07:39.906Z,95.40
2018-10-09T14:10:12.816Z,99.90
2018-10-09T14:12:45.296Z,99.90
2018-10-09T14:15:18.090Z,99.90
2018-10-09T14:17:50.693Z,97.80
2018-10-09T14:20:23.143Z,96.80
2018-10-09T14:22:56.076Z,96.50
2018-10-09T14:25:28.620Z,96.70
2018-10-09T14:28:01.167Z,96.80
2018-10-09T14:30:33.647Z,96.30
2018-10-09T14:33:06.137Z,96.90
2018-10-09T14:35:38.607Z,96.90
2018-10-09T14:38:11.013Z,97.20
2018-10-09T14:40:43.518Z,97.00
2018-10-09T14:43:16.101Z,98.90
2018-10-09T14:45:48.949Z,97.20
2018-10-09T14:48:21.493Z,96.90
2018-10-09T14:50:54.436Z,97.20
2018-10-09T14:53:27.402Z,97.00
2018-10-09T14:56:00.305Z,96.80
2018-10-09T14:58:33.574Z,96.90
2018-10-09T15:01:06.257Z,97.50
2018-10-09T15:03:38.780Z,97.50
2018-10-09T15:06:11.287Z,97.40
2018-10-09T15:08:43.761Z,99.90
2018-10-09T15:11:16.282Z,98.00
2018-10-09T15:13:48.699Z,98.00
2018-10-09T15:16:21.295Z,97.80
2018-10-09T15:18:53.884Z,98.00
2018-10-09T15:21:26.332Z,98.10
2018-10-09T15:23:58.897Z,98.30
2018-10-09T15:26:32.418Z,98.30
2018-10-09T15:29:05.334Z,98.40
2018-10-09T15:31:37.895Z,98.40
2018-10-09T15:34:10.309Z,98.60
2018-10-09T15:36:42.803Z,98.40
2018-10-09T15:39:15.416Z,98.60
2018-10-09T15:41:47.871Z,98.80
2018-10-09T15:44:20.265Z,98.70
2018-10-09T15:46:52.942Z,99.10
2018-10-09T15:49:25.447Z,99.20
2018-10-09T15:51:57.890Z,99.40
2018-10-09T15:54:30.630Z,99.30
2018-10-09T15:57:03.257Z,99.50
2018-10-09T15:59:35.818Z,99.90
2018-10-09T16:02:08.342Z,99.90
2018-10-09T16:04:40.793Z,99.90
2018-10-09T16:07:13.474Z,99.90
2018-10-09T16:09:46.057Z,99.80
2018-10-09T16:12:18.618Z,99.90
2018-10-09T16:14:51.218Z,99.90
2018-10-09T16:17:23.910Z,99.90
2018-10-09T16:19:56.395Z,99.90
2018-10-09T16:22:28.875Z,99.90
2018-10-09T16:25:01.340Z,99.90
2018-10-09T16:27:33.974Z,99.90
2018-10-09T16:30:07.527Z,99.90
2018-10-09T16:32:40.187Z,99.90
2018-10-09T16:35:13.025Z,99.90
2018-10-09T16:37:45.632Z,99.90
2018-10-09T16:40:18.559Z,99.90
2018-10-09T16:42:50.953Z,99.90
2018-10-09T16:45:23.590Z,99.90
2018-10-09T16:47:56.337Z,99.90
2018-10-09T16:50:28.813Z,99.90
2018-10-09T16:53:01.336Z,99.90
2018-10-09T16:55:33.806Z,99.90
2018-10-09T16:58:06.194Z,99.90
2018-10-09T17:00:38.723Z,99.90
2018-10-09T17:03:11.761Z,99.90
2018-10-09T17:05:44.281Z,99.90
2018-10-09T17:08:16.835Z,99.90
2018-10-09T17:10:49.244Z,99.90
2018-10-09T17:13:21.773Z,99.90
2018-10-09T17:15:54.230Z,99.90
2018-10-09T17:18:26.774Z,99.90
2018-10-09T17:20:59.308Z,99.90
2018-10-09T17:23:32.130Z,99.90
2018-10-09T17:26:04.898Z,99.90
2018-10-09T17:28:39.047Z,99.90
2018-10-09T17:31:11.494Z,99.90
2018-10-09T17:33:43.952Z,99.90
2018-10-09T17:36:16.449Z,99.90
2018-10-09T17:38:49.138Z,99.90
2018-10-09T17:41:21.637Z,99.90
2018-10-09T17:43:54.520Z,99.90
2018-10-09T17:46:27.165Z,99.90
2018-10-09T17:48:59.798Z,99.90
2018-10-09T17:51:32.249Z,99.90
2018-10-09T17:54:04.730Z,99.90
2018-10-09T17:59:09.590Z,99.90
2018-10-09T18:01:42.019Z,99.90
2018-10-09T18:04:14.515Z,99.90
2018-10-09T18:06:47.049Z,99.90
2018-10-09T18:09:19.630Z,99.90
2018-10-09T18:11:52.066Z,99.90
2018-10-09T18:14:24.637Z,99.90
2018-10-09T18:17:15.970Z,99.90
2018-10-09T18:19:48.428Z,99.90
2018-10-09T18:22:20.945Z,99.90
2018-10-09T18:24:53.446Z,99.90
2018-10-09T18:27:25.848Z,99.90
2018-10-09T18:29:58.351Z,99.90
2018-10-09T18:32:30.993Z,99.90
2018-10-09T18:35:03.565Z,99.90
2018-10-09T18:37:36.412Z,99.90
2018-10-09T18:40:09.113Z,99.90
2018-10-09T18:42:41.537Z,99.90
2018-10-09T18:45:14.102Z,99.90
2018-10-09T18:47:46.620Z,99.90
2018-10-09T18:50:19.190Z,99.90
2018-10-09T18:52:51.732Z,99.90
2018-10-09T18:55:24.173Z,99.90
2018-10-09T18:57:57.250Z,99.90
2018-10-09T19:00:29.761Z,99.90
2018-10-09T19:03:02.226Z,99.90
2018-10-09T19:05:34.691Z,99.90
2018-10-09T19:08:07.156Z,99.90
2018-10-09T19:10:39.685Z,99.90
2018-10-09T19:13:16.521Z,99.90
2018-10-09T19:15:49.066Z,99.90
2018-10-09T19:18:21.546Z,99.90
2018-10-09T19:20:53.996Z,99.90
2018-10-09T19:23:26.449Z,99.90
2018-10-09T19:25:59.661Z,99.90
2018-10-09T19:28:32.103Z,99.90
2018-10-09T19:31:05.406Z,99.90
2018-10-09T19:33:37.941Z,99.90
2018-10-09T19:36:10.602Z,99.90
2018-10-09T19:38:42.978Z,99.90
2018-10-09T19:41:15.398Z,99.90
2018-10-09T19:43:47.817Z,99.90
2018-10-09T19:46:20.241Z,99.90
2018-10-09T19:48:52.658Z,99.90
2018-10-09T19:51:25.314Z,99.90
2018-10-09T19:53:57.655Z,99.90
2018-10-09T19:56:30.533Z,99.90
2018-10-09T19:59:03.032Z,99.90
2018-10-09T20:01:35.470Z,99.90
2018-10-09T20:04:08.168Z,99.90
2018-10-09T20:06:40.819Z,99.90
2018-10-09T20:09:13.900Z,99.90
2018-10-09T20:11:46.410Z,99.90
2018-10-09T20:14:18.896Z,99.90
2018-10-09T20:16:51.325Z,99.90
2018-10-09T20:19:23.770Z,99.90
2018-10-09T20:21:56.258Z,99.90
2018-10-09T20:24:28.717Z,99.90
2018-10-09T20:27:01.411Z,99.90
2018-10-09T20:29:33.848Z,99.90
2018-10-09T20:32:06.783Z,99.90
2018-10-09T20:34:39.208Z,99.90
2018-10-09T20:37:11.658Z,99.90
2018-10-09T20:39:44.052Z,99.90
2018-10-09T20:42:16.535Z,99.90
2018-10-09T20:44:48.958Z,99.90
2018-10-09T20:47:26.845Z,99.90
2018-10-09T20:49:59.306Z,99.90
2018-10-09T20:52:32.805Z,99.90
2018-10-09T20:55:05.273Z,99.90
2018-10-09T20:57:38.264Z,99.90
2018-10-09T21:00:10.683Z,99.90
2018-10-09T21:02:43.195Z,99.90
2018-10-09T21:05:15.595Z,99.90
2018-10-09T21:07:48.057Z,99.90
2018-10-09T21:10:20.412Z,99.90
2018-10-09T21:12:52.882Z,99.90
2018-10-09T21:15:25.366Z,99.90
2018-10-09T21:17:57.897Z,99.90
2018-10-09T21:20:30.274Z,99.90
2018-10-09T21:23:02.733Z,99.90
2018-10-09T21:25:35.129Z,99.90
2018-10-09T21:28:07.802Z,99.90
2018-10-09T21:30:40.254Z,99.90
2018-10-09T21:33:12.892Z,99.90
2018-10-09T21:35:45.294Z,99.90
2018-10-09T21:38:17.709Z,99.90
2018-10-09T21:43:22.523Z,99.90
2018-10-09T21:45:54.924Z,99.90
2018-10-09T21:48:27.328Z,99.90
2018-10-09T21:50:59.731Z,99.90
2018-10-09T21:53:32.886Z,99.90
2018-10-09T21:56:05.398Z,99.90
2018-10-09T21:58:37.914Z,99.90
2018-10-09T22:01:12.273Z,99.90
2018-10-09T22:03:44.695Z,99.90
2018-10-09T22:06:17.141Z,99.90
2018-10-09T22:08:49.562Z,99.90
2018-10-09T22:11:21.981Z,99.90
2018-10-09T22:13:54.397Z,99.90
2018-10-09T22:16:26.854Z,99.90
2018-10-09T22:18:59.278Z,99.90
2018-10-09T22:21:31.702Z,99.90
2018-10-09T22:24:04.175Z,99.90
2018-10-09T22:26:36.648Z,99.90
2018-10-09T22:29:09.219Z,99.90
2018-10-09T22:31:41.621Z,99.90
2018-10-09T22:34:14.084Z,99.90
2018-10-09T22:36:46.498Z,99.90
2018-10-09T22:39:18.901Z,99.90
2018-10-09T22:41:51.273Z,99.90
2018-10-09T22:44:23.675Z,99.90
2018-10-09T22:46:56.082Z,99.90
2018-10-09T22:49:28.566Z,99.90
2018-10-09T22:52:01.010Z,99.90
2018-10-09T22:54:33.503Z,99.90
2018-10-09T22:57:05.977Z,99.90
2018-10-09T22:59:38.360Z,99.90
2018-10-09T23:02:11.071Z,99.90
2018-10-09T23:04:43.445Z,99.90
2018-10-09T23:07:15.874Z,99.90
2018-10-09T23:12:20.719Z,99.90
2018-10-09T23:14:53.140Z,99.90
2018-10-09T23:17:25.542Z,99.90
2018-10-09T23:19:57.924Z,99.90
2018-10-09T23:22:30.598Z,99.90
2018-10-09T23:25:03.068Z,99.90
